Mineral, Texas
Current Conditions -  °F | °C
As of 2:15 PM on Friday 24 Oct 2014 (Local Time) from KBEA Reporting Station
Clear Clear  
Wind Chill: 86°   Ceiling: Unl
Heat Index: 86°   Visibility: 10mi
Dew Point: 56°   Wind: 0mph
Humidity: 35%   Direction: NA
Pressure: 30.1"   Gusts: NA
Location:  28.55°N, 97.9°W
Report Text: KBEA 241915Z AUTO 00000KT 10SM CLR 30/13 A3010 RMK AO2 T03010131
Loading
Personal Weather Stations






























Interactive Weather Map
Tropical Storm Tracking
New forecast layout! Learn more

10-Day Weather Forecast

Advertisements
Track Severe Weather on mobile